Time,TemperatureF,DewpointF,PressureIn,WindDirection,WindDirectionDegrees,WindSpeedMPH,WindSpeedGustMPH,Humidity,HourlyPrecipIn,Conditions,Clouds,dailyrainin,SoftwareType,DateUTC
2013-06-09 00:12:00,72.7,72.1,29.70,ESE,112,0.0,-999.0,98,-99.99,,,0.00,Acu-Link.com,2013-06-09 05:12:00,
2013-06-09 00:27:00,72.5,71.9,29.71,ENE,67,0.0,-999.0,98,-99.99,,,0.00,Acu-Link.com,2013-06-09 05:27:00,
2013-06-09 00:42:00,72.5,71.9,29.72,NE,45,0.0,-999.0,98,-99.99,,,0.00,Acu-Link.com,2013-06-09 05:42:00,
2013-06-09 00:57:00,72.3,71.7,29.71,ENE,67,0.0,-999.0,98,-99.99,,,0.00,Acu-Link.com,2013-06-09 05:57:00,
2013-06-09 01:12:00,72.7,72.1,29.71,NE,45,0.0,-999.0,98,-99.99,,,0.00,Acu-Link.com,2013-06-09 06:12:00,
2013-06-09 01:28:00,72.1,71.5,29.72,ESE,112,0.0,-999.0,98,-99.99,,,0.00,Acu-Link.com,2013-06-09 06:28:00,
2013-06-09 01:43:00,72.3,71.7,29.71,ENE,67,0.0,-999.0,98,-99.99,,,0.00,Acu-Link.com,2013-06-09 06:43:00,
2013-06-09 01:58:00,72.3,71.7,29.70,ESE,112,1.7,-999.0,98,-99.99,,,0.00,Acu-Link.com,2013-06-09 06:58:00,
2013-06-09 02:13:00,72.3,71.7,29.70,ENE,67,2.2,-999.0,98,-99.99,,,0.00,Acu-Link.com,2013-06-09 07:13:00,
2013-06-09 02:28:00,72.5,71.9,29.71,NNW,337,0.0,-999.0,98,-99.99,,,0.00,Acu-Link.com,2013-06-09 07:28:00,
2013-06-09 02:43:00,72.3,71.7,29.71,NE,45,1.1,-999.0,98,-99.99,,,0.00,Acu-Link.com,2013-06-09 07:43:00,
2013-06-09 02:58:00,72.1,71.5,29.71,East,90,2.2,-999.0,98,-99.99,,,0.00,Acu-Link.com,2013-06-09 07:58:00,
2013-06-09 03:14:00,72.1,71.5,29.71,ENE,67,2.7,-999.0,98,-99.99,,,0.00,Acu-Link.com,2013-06-09 08:14:00,
2013-06-09 03:29:00,72.1,71.5,29.71,ENE,67,1.7,-999.0,98,-99.99,,,0.00,Acu-Link.com,2013-06-09 08:29:00,
2013-06-09 03:44:00,72.0,71.4,29.71,ESE,112,0.0,-999.0,98,-99.99,,,0.00,Acu-Link.com,2013-06-09 08:44:00,
2013-06-09 03:59:00,71.8,71.2,29.70,NE,45,0.0,-999.0,98,-99.99,,,0.00,Acu-Link.com,2013-06-09 08:59:00,
2013-06-09 04:14:00,72.0,71.4,29.71,ESE,112,0.0,-999.0,98,-99.99,,,0.00,Acu-Link.com,2013-06-09 09:14:00,
2013-06-09 04:30:00,71.6,71.0,29.70,SE,135,0.0,-999.0,98,-99.99,,,0.00,Acu-Link.com,2013-06-09 09:30:00,
2013-06-09 04:45:00,71.6,71.0,29.71,ESE,112,1.1,-999.0,98,-99.99,,,0.00,Acu-Link.com,2013-06-09 09:45:00,
2013-06-09 05:00:00,71.6,71.0,29.70,NE,45,2.7,-999.0,98,-99.99,,,0.00,Acu-Link.com,2013-06-09 10:00:00,
2013-06-09 05:15:00,71.6,71.0,29.70,NNE,22,0.0,-999.0,98,-99.99,,,0.00,Acu-Link.com,2013-06-09 10:15:00,
2013-06-09 05:30:00,71.6,71.0,29.71,East,90,0.0,-999.0,98,-99.99,,,0.00,Acu-Link.com,2013-06-09 10:30:00,
2013-06-09 05:45:00,71.4,70.8,29.69,ESE,112,0.0,-999.0,98,-99.99,,,0.00,Acu-Link.com,2013-06-09 10:45:00,
2013-06-09 06:00:00,71.4,70.8,29.70,ENE,67,0.0,-999.0,98,-99.99,,,0.00,Acu-Link.com,2013-06-09 11:00:00,
2013-06-09 06:16:00,71.4,70.8,29.71,NE,45,0.0,-999.0,98,-99.99,,,0.00,Acu-Link.com,2013-06-09 11:16:00,
2013-06-09 06:31:00,71.4,70.8,29.71,SE,135,0.0,-999.0,98,-99.99,,,0.00,Acu-Link.com,2013-06-09 11:31:00,
2013-06-09 06:46:00,72.7,72.1,29.72,ESE,112,0.0,-999.0,98,-99.99,,,0.00,Acu-Link.com,2013-06-09 11:46:00,
2013-06-09 07:01:00,73.8,73.2,29.72,North,0,0.0,-999.0,98,-99.99,,,0.00,Acu-Link.com,2013-06-09 12:01:00,
2013-06-09 07:31:00,77.9,77.3,29.71,East,90,2.7,-999.0,98,-99.99,,,0.00,Acu-Link.com,2013-06-09 12:31:00,
2013-06-09 07:46:00,77.7,77.1,29.71,East,90,3.2,-999.0,98,-99.99,,,0.00,Acu-Link.com,2013-06-09 12:46:00,
2013-06-09 08:16:00,81.9,81.3,29.71,ESE,112,2.2,-999.0,98,-99.99,,,0.00,Acu-Link.com,2013-06-09 13:16:00,
2013-06-09 08:32:00,84.0,82.1,29.70,North,0,2.2,-999.0,94,-99.99,,,0.00,Acu-Link.com,2013-06-09 13:32:00,
2013-06-09 08:47:00,84.6,82.0,29.71,ESE,112,1.1,-999.0,92,-99.99,,,0.00,Acu-Link.com,2013-06-09 13:47:00,
2013-06-09 09:02:00,89.4,83.2,29.72,SE,135,1.1,-999.0,82,-99.99,,,0.00,Acu-Link.com,2013-06-09 14:02:00,
2013-06-09 09:17:00,91.0,83.9,29.73,WNW,292,1.1,-999.0,80,-99.99,,,0.00,Acu-Link.com,2013-06-09 14:17:00,
2013-06-09 09:32:00,85.1,82.5,29.73,SSW,202,1.1,-999.0,92,-99.99,,,0.00,Acu-Link.com,2013-06-09 14:32:00,
2013-06-09 09:47:00,85.1,82.5,29.73,ENE,67,1.1,-999.0,92,-99.99,,,0.00,Acu-Link.com,2013-06-09 14:47:00,
2013-06-09 10:03:00,85.1,83.2,29.73,ESE,112,1.7,-999.0,94,-99.99,,,0.00,Acu-Link.com,2013-06-09 15:03:00,
2013-06-09 10:18:00,86.4,82.8,29.73,West,270,2.2,-999.0,89,-99.99,,,0.00,Acu-Link.com,2013-06-09 15:18:00,
2013-06-09 10:33:00,86.0,80.9,29.73,WSW,247,4.2,-999.0,85,-99.99,,,0.00,Acu-Link.com,2013-06-09 15:33:00,
2013-06-09 10:48:00,88.0,82.5,29.72,SSW,202,3.7,-999.0,84,-99.99,,,0.00,Acu-Link.com,2013-06-09 15:48:00,
2013-06-09 11:03:00,90.1,82.7,29.71,WNW,292,5.8,-999.0,79,-99.99,,,0.00,Acu-Link.com,2013-06-09 16:03:00,
2013-06-09 11:18:00,89.1,81.3,29.71,SSE,157,2.2,-999.0,78,-99.99,,,0.00,Acu-Link.com,2013-06-09 16:18:00,
2013-06-09 11:33:00,90.9,81.4,29.70,SW,225,2.7,-999.0,74,-99.99,,,0.00,Acu-Link.com,2013-06-09 16:33:00,
2013-06-09 11:48:00,89.2,82.2,29.70,SSW,202,3.7,-999.0,80,-99.99,,,0.00,Acu-Link.com,2013-06-09 16:48:00,
2013-06-09 12:03:00,82.6,82.0,29.70,WNW,292,2.2,-999.0,98,-99.99,,,0.02,Acu-Link.com,2013-06-09 17:03:00,
2013-06-09 12:18:00,85.6,83.0,29.72,WSW,247,9.4,-999.0,92,-99.99,,,0.02,Acu-Link.com,2013-06-09 17:18:00,
2013-06-09 12:34:00,79.5,77.6,29.70,SSW,202,6.3,-999.0,94,-99.99,,,0.02,Acu-Link.com,2013-06-09 17:34:00,
2013-06-09 12:49:00,76.5,75.9,29.70,SE,135,3.2,-999.0,98,-99.99,,,0.14,Acu-Link.com,2013-06-09 17:49:00,
2013-06-09 13:04:00,76.1,75.5,29.72,ESE,112,2.7,-999.0,98,-99.99,,,0.15,Acu-Link.com,2013-06-09 18:04:00,
2013-06-09 13:19:00,76.5,75.9,29.73,SSW,202,0.0,-999.0,98,-99.99,,,0.15,Acu-Link.com,2013-06-09 18:19:00,
2013-06-09 13:34:00,77.2,76.6,29.73,West,270,2.2,-999.0,98,-99.99,,,0.15,Acu-Link.com,2013-06-09 18:34:00,
2013-06-09 13:49:00,77.9,77.3,29.71,ESE,112,0.0,-999.0,98,-99.99,,,0.15,Acu-Link.com,2013-06-09 18:49:00,
2013-06-09 14:05:00,77.7,77.1,29.72,NE,45,1.7,-999.0,98,-99.99,,,0.15,Acu-Link.com,2013-06-09 19:05:00,
2013-06-09 14:20:00,78.8,78.2,29.73,North,0,3.2,-999.0,98,-99.99,,,0.15,Acu-Link.com,2013-06-09 19:20:00,
2013-06-09 14:35:00,77.9,77.3,29.73,NNE,22,3.7,-999.0,98,-99.99,,,0.15,Acu-Link.com,2013-06-09 19:35:00,
2013-06-09 14:51:00,75.4,74.8,29.77,SW,225,9.4,-999.0,98,-99.99,,,0.18,Acu-Link.com,2013-06-09 19:51:00,
2013-06-09 15:06:00,73.6,73.0,29.78,NNW,337,5.3,-999.0,98,-99.99,,,0.52,Acu-Link.com,2013-06-09 20:06:00,
2013-06-09 15:21:00,72.5,71.9,29.76,NNE,22,1.1,-999.0,98,-99.99,,,1.52,Acu-Link.com,2013-06-09 20:21:00,
2013-06-09 15:51:00,72.5,71.9,29.73,West,270,0.0,-999.0,98,-99.99,,,1.53,Acu-Link.com,2013-06-09 20:51:00,
2013-06-09 16:21:00,73.2,72.6,29.71,SE,135,1.7,-999.0,98,-99.99,,,1.54,Acu-Link.com,2013-06-09 21:21:00,
2013-06-09 16:36:00,73.8,73.2,29.70,North,0,2.7,-999.0,98,-99.99,,,1.56,Acu-Link.com,2013-06-09 21:36:00,
2013-06-09 16:51:00,74.1,73.5,29.70,East,90,1.1,-999.0,98,-99.99,,,1.56,Acu-Link.com,2013-06-09 21:51:00,
2013-06-09 17:07:00,74.8,74.2,29.70,NW,315,0.0,-999.0,98,-99.99,,,1.56,Acu-Link.com,2013-06-09 22:07:00,
2013-06-09 17:22:00,75.7,75.1,29.68,ESE,112,0.0,-999.0,98,-99.99,,,1.56,Acu-Link.com,2013-06-09 22:22:00,
2013-06-09 17:37:00,76.6,76.0,29.68,SSW,202,0.0,-999.0,98,-99.99,,,1.56,Acu-Link.com,2013-06-09 22:37:00,
2013-06-09 17:52:00,78.1,77.5,29.66,East,90,2.2,-999.0,98,-99.99,,,1.56,Acu-Link.com,2013-06-09 22:52:00,
2013-06-09 18:07:00,77.7,77.1,29.65,East,90,2.7,-999.0,98,-99.99,,,1.56,Acu-Link.com,2013-06-09 23:07:00,
2013-06-09 18:23:00,77.2,76.6,29.65,SSE,157,2.7,-999.0,98,-99.99,,,1.56,Acu-Link.com,2013-06-09 23:23:00,
2013-06-09 18:38:00,77.7,77.1,29.64,ESE,112,6.3,-999.0,98,-99.99,,,1.56,Acu-Link.com,2013-06-09 23:38:00,
2013-06-09 18:53:00,77.5,76.9,29.64,SE,135,5.3,-999.0,98,-99.99,,,1.56,Acu-Link.com,2013-06-09 23:53:00,
2013-06-09 19:08:00,77.0,76.4,29.68,SE,135,2.2,-999.0,98,-99.99,,,1.56,Acu-Link.com,2013-06-10 00:08:00,
2013-06-09 19:23:00,76.8,76.2,29.71,SSW,202,3.7,-999.0,98,-99.99,,,1.56,Acu-Link.com,2013-06-10 00:23:00,
2013-06-09 19:38:00,76.8,76.2,29.72,West,270,0.0,-999.0,98,-99.99,,,1.56,Acu-Link.com,2013-06-10 00:38:00,
2013-06-09 19:53:00,76.5,75.9,29.73,ENE,67,0.0,-999.0,98,-99.99,,,1.56,Acu-Link.com,2013-06-10 00:53:00,
2013-06-09 20:08:00,75.6,75.0,29.74,ESE,112,0.0,-999.0,98,-99.99,,,1.56,Acu-Link.com,2013-06-10 01:08:00,
2013-06-09 20:25:00,74.8,74.2,29.74,WNW,292,0.0,-999.0,98,-99.99,,,1.56,Acu-Link.com,2013-06-10 01:25:00,
2013-06-09 20:40:00,74.1,73.5,29.73,NE,45,0.0,-999.0,98,-99.99,,,1.56,Acu-Link.com,2013-06-10 01:40:00,
2013-06-09 21:12:00,73.4,72.8,29.74,ESE,112,0.0,-999.0,98,-99.99,,,1.56,Acu-Link.com,2013-06-10 02:12:00,
2013-06-09 21:27:00,73.4,72.8,29.76,East,90,0.0,-999.0,98,-99.99,,,1.56,Acu-Link.com,2013-06-10 02:27:00,
2013-06-09 21:42:00,73.2,72.6,29.76,ENE,67,0.0,-999.0,98,-99.99,,,1.56,Acu-Link.com,2013-06-10 02:42:00,
2013-06-09 21:58:00,73.0,72.4,29.76,South,180,0.0,-999.0,98,-99.99,,,1.56,Acu-Link.com,2013-06-10 02:58:00,
2013-06-09 22:13:00,72.9,72.3,29.77,South,180,0.0,-999.0,98,-99.99,,,1.56,Acu-Link.com,2013-06-10 03:13:00,
2013-06-09 22:28:00,72.5,71.9,29.78,SSE,157,0.0,-999.0,98,-99.99,,,1.56,Acu-Link.com,2013-06-10 03:28:00,
2013-06-09 22:44:00,72.5,71.9,29.78,SSW,202,0.0,-999.0,98,-99.99,,,1.56,Acu-Link.com,2013-06-10 03:44:00,
2013-06-09 22:59:00,72.5,71.9,29.78,NE,45,1.7,-999.0,98,-99.99,,,1.56,Acu-Link.com,2013-06-10 03:59:00,
2013-06-09 23:15:00,72.5,71.9,29.79,ENE,67,0.0,-999.0,98,-99.99,,,1.56,Acu-Link.com,2013-06-10 04:15:00,
2013-06-09 23:30:00,72.5,71.9,29.79,South,180,0.0,-999.0,98,-99.99,,,1.56,Acu-Link.com,2013-06-10 04:30:00,
2013-06-09 23:46:00,72.5,71.9,29.79,NNW,337,0.0,-999.0,98,-99.99,,,1.56,Acu-Link.com,2013-06-10 04:46:00,